sensor_id;sensor_type;location;lat;lon;timestamp;P1;durP1;ratioP1;P2;durP2;ratioP2
47089;SDS011;32840;52.516;13.294;2023-03-12T00:02:18;7.63;;;2.10;;
47089;SDS011;32840;52.516;13.294;2023-03-12T00:05:07;6.80;;;2.20;;
47089;SDS011;32840;52.516;13.294;2023-03-12T00:07:53;5.13;;;2.33;;
47089;SDS011;32840;52.516;13.294;2023-03-12T00:10:38;7.93;;;2.38;;
47089;SDS011;32840;52.516;13.294;2023-03-12T00:13:24;7.15;;;2.13;;
47089;SDS011;32840;52.516;13.294;2023-03-12T00:16:13;6.00;;;2.38;;
47089;SDS011;32840;52.516;13.294;2023-03-12T00:18:58;5.50;;;2.20;;
47089;SDS011;32840;52.516;13.294;2023-03-12T00:21:43;10.07;;;2.20;;
47089;SDS011;32840;52.516;13.294;2023-03-12T00:24:28;7.55;;;2.45;;
47089;SDS011;32840;52.516;13.294;2023-03-12T00:27:14;6.05;;;1.98;;
47089;SDS011;32840;52.516;13.294;2023-03-12T00:29:59;5.10;;;1.98;;
47089;SDS011;32840;52.516;13.294;2023-03-12T00:32:44;7.38;;;2.22;;
47089;SDS011;32840;52.516;13.294;2023-03-12T00:35:30;7.72;;;1.85;;
47089;SDS011;32840;52.516;13.294;2023-03-12T00:38:16;7.03;;;2.00;;
47089;SDS011;32840;52.516;13.294;2023-03-12T00:41:00;5.72;;;2.20;;
47089;SDS011;32840;52.516;13.294;2023-03-12T00:43:46;5.82;;;1.95;;
47089;SDS011;32840;52.516;13.294;2023-03-12T00:46:34;8.02;;;2.03;;
47089;SDS011;32840;52.516;13.294;2023-03-12T00:49:20;8.70;;;2.30;;
47089;SDS011;32840;52.516;13.294;2023-03-12T00:52:05;5.30;;;2.22;;
47089;SDS011;32840;52.516;13.294;2023-03-12T00:54:49;6.20;;;2.63;;
47089;SDS011;32840;52.516;13.294;2023-03-12T00:57:34;5.32;;;1.83;;
47089;SDS011;32840;52.516;13.294;2023-03-12T01:00:18;6.80;;;2.22;;
47089;SDS011;32840;52.516;13.294;2023-03-12T01:03:04;6.93;;;2.35;;
47089;SDS011;32840;52.516;13.294;2023-03-12T01:05:50;17.10;;;2.42;;
47089;SDS011;32840;52.516;13.294;2023-03-12T01:08:40;4.03;;;1.70;;
47089;SDS011;32840;52.516;13.294;2023-03-12T01:11:27;5.50;;;2.47;;
47089;SDS011;32840;52.516;13.294;2023-03-12T01:14:12;7.97;;;2.28;;
47089;SDS011;32840;52.516;13.294;2023-03-12T01:16:56;8.63;;;2.25;;
47089;SDS011;32840;52.516;13.294;2023-03-12T01:19:41;9.38;;;2.30;;
47089;SDS011;32840;52.516;13.294;2023-03-12T01:22:26;5.93;;;2.13;;
47089;SDS011;32840;52.516;13.294;2023-03-12T01:25:11;6.80;;;2.50;;
47089;SDS011;32840;52.516;13.294;2023-03-12T01:27:56;7.32;;;2.65;;
47089;SDS011;32840;52.516;13.294;2023-03-12T01:30:41;4.28;;;2.10;;
47089;SDS011;32840;52.516;13.294;2023-03-12T01:33:26;6.22;;;2.22;;
47089;SDS011;32840;52.516;13.294;2023-03-12T01:36:29;4.45;;;2.00;;
47089;SDS011;32840;52.516;13.294;2023-03-12T01:39:14;9.90;;;2.72;;
47089;SDS011;32840;52.516;13.294;2023-03-12T01:42:01;8.18;;;2.33;;
47089;SDS011;32840;52.516;13.294;2023-03-12T01:47:41;5.47;;;2.00;;
47089;SDS011;32840;52.516;13.294;2023-03-12T01:50:26;7.65;;;2.45;;
47089;SDS011;32840;52.516;13.294;2023-03-12T01:53:10;10.25;;;2.60;;
47089;SDS011;32840;52.516;13.294;2023-03-12T01:55:56;5.65;;;2.15;;
47089;SDS011;32840;52.516;13.294;2023-03-12T01:58:46;5.13;;;2.28;;
47089;SDS011;32840;52.516;13.294;2023-03-12T02:04:19;3.92;;;2.33;;
47089;SDS011;32840;52.516;13.294;2023-03-12T02:07:07;4.90;;;1.98;;
47089;SDS011;32840;52.516;13.294;2023-03-12T02:09:53;4.75;;;1.85;;
47089;SDS011;32840;52.516;13.294;2023-03-12T02:12:38;4.57;;;2.25;;
47089;SDS011;32840;52.516;13.294;2023-03-12T02:15:23;6.85;;;2.47;;
47089;SDS011;32840;52.516;13.294;2023-03-12T02:18:10;4.75;;;2.28;;
47089;SDS011;32840;52.516;13.294;2023-03-12T02:26:39;7.60;;;2.40;;
47089;SDS011;32840;52.516;13.294;2023-03-12T02:29:26;8.68;;;2.45;;
47089;SDS011;32840;52.516;13.294;2023-03-12T02:32:22;7.60;;;2.15;;
47089;SDS011;32840;52.516;13.294;2023-03-12T02:35:09;6.78;;;2.38;;
47089;SDS011;32840;52.516;13.294;2023-03-12T02:37:57;4.78;;;2.30;;
47089;SDS011;32840;52.516;13.294;2023-03-12T02:40:42;5.40;;;1.73;;
47089;SDS011;32840;52.516;13.294;2023-03-12T02:43:30;5.78;;;2.10;;
47089;SDS011;32840;52.516;13.294;2023-03-12T02:46:15;8.68;;;2.53;;
47089;SDS011;32840;52.516;13.294;2023-03-12T02:49:02;8.15;;;2.45;;
47089;SDS011;32840;52.516;13.294;2023-03-12T02:51:47;6.30;;;2.47;;
47089;SDS011;32840;52.516;13.294;2023-03-12T02:54:34;7.03;;;2.20;;
47089;SDS011;32840;52.516;13.294;2023-03-12T02:57:18;5.07;;;2.00;;
47089;SDS011;32840;52.516;13.294;2023-03-12T03:00:05;6.43;;;2.33;;
47089;SDS011;32840;52.516;13.294;2023-03-12T03:03:00;5.93;;;2.30;;
47089;SDS011;32840;52.516;13.294;2023-03-12T03:05:45;9.85;;;2.80;;
47089;SDS011;32840;52.516;13.294;2023-03-12T03:08:30;6.90;;;2.60;;
47089;SDS011;32840;52.516;13.294;2023-03-12T03:11:15;6.25;;;2.25;;
47089;SDS011;32840;52.516;13.294;2023-03-12T03:14:01;9.00;;;2.30;;
47089;SDS011;32840;52.516;13.294;2023-03-12T03:16:49;8.13;;;2.40;;
47089;SDS011;32840;52.516;13.294;2023-03-12T03:19:34;6.07;;;2.25;;
47089;SDS011;32840;52.516;13.294;2023-03-12T03:22:20;6.10;;;2.65;;
47089;SDS011;32840;52.516;13.294;2023-03-12T03:25:07;8.20;;;2.45;;
47089;SDS011;32840;52.516;13.294;2023-03-12T03:27:52;7.03;;;2.80;;
47089;SDS011;32840;52.516;13.294;2023-03-12T03:30:37;6.45;;;2.90;;
47089;SDS011;32840;52.516;13.294;2023-03-12T03:33:23;6.50;;;2.20;;
47089;SDS011;32840;52.516;13.294;2023-03-12T03:36:08;5.47;;;2.50;;
47089;SDS011;32840;52.516;13.294;2023-03-12T03:38:53;9.05;;;2.80;;
47089;SDS011;32840;52.516;13.294;2023-03-12T03:41:39;5.93;;;2.20;;
47089;SDS011;32840;52.516;13.294;2023-03-12T03:44:24;5.97;;;3.22;;
47089;SDS011;32840;52.516;13.294;2023-03-12T03:47:09;7.25;;;2.97;;
47089;SDS011;32840;52.516;13.294;2023-03-12T03:49:58;8.00;;;2.70;;
47089;SDS011;32840;52.516;13.294;2023-03-12T03:52:45;5.78;;;2.00;;
47089;SDS011;32840;52.516;13.294;2023-03-12T03:55:36;10.32;;;2.72;;
47089;SDS011;32840;52.516;13.294;2023-03-12T03:58:22;6.13;;;2.17;;
47089;SDS011;32840;52.516;13.294;2023-03-12T04:01:11;7.13;;;3.22;;
47089;SDS011;32840;52.516;13.294;2023-03-12T04:03:56;8.35;;;2.70;;
47089;SDS011;32840;52.516;13.294;2023-03-12T04:06:42;6.80;;;2.90;;
47089;SDS011;32840;52.516;13.294;2023-03-12T04:09:32;8.63;;;2.63;;
47089;SDS011;32840;52.516;13.294;2023-03-12T04:12:23;8.25;;;2.85;;
47089;SDS011;32840;52.516;13.294;2023-03-12T04:15:11;9.63;;;3.10;;
47089;SDS011;32840;52.516;13.294;2023-03-12T04:17:57;6.00;;;3.20;;
47089;SDS011;32840;52.516;13.294;2023-03-12T04:20:42;6.35;;;3.20;;
47089;SDS011;32840;52.516;13.294;2023-03-12T04:23:27;7.53;;;3.13;;
47089;SDS011;32840;52.516;13.294;2023-03-12T04:26:12;6.15;;;3.35;;
47089;SDS011;32840;52.516;13.294;2023-03-12T04:28:58;7.10;;;3.42;;
47089;SDS011;32840;52.516;13.294;2023-03-12T04:31:49;6.75;;;4.15;;
47089;SDS011;32840;52.516;13.294;2023-03-12T04:34:37;8.82;;;3.95;;
47089;SDS011;32840;52.516;13.294;2023-03-12T04:37:22;11.73;;;4.35;;
47089;SDS011;32840;52.516;13.294;2023-03-12T04:40:08;11.15;;;4.20;;
47089;SDS011;32840;52.516;13.294;2023-03-12T04:42:54;6.35;;;4.15;;
47089;SDS011;32840;52.516;13.294;2023-03-12T04:45:42;9.35;;;4.35;;
47089;SDS011;32840;52.516;13.294;2023-03-12T04:48:30;10.85;;;4.60;;
47089;SDS011;32840;52.516;13.294;2023-03-12T04:51:18;6.65;;;4.45;;
47089;SDS011;32840;52.516;13.294;2023-03-12T04:54:03;9.88;;;4.07;;
47089;SDS011;32840;52.516;13.294;2023-03-12T04:56:52;8.77;;;3.90;;
47089;SDS011;32840;52.516;13.294;2023-03-12T04:59:37;7.18;;;4.03;;
47089;SDS011;32840;52.516;13.294;2023-03-12T05:02:22;11.52;;;3.65;;
47089;SDS011;32840;52.516;13.294;2023-03-12T05:05:12;7.00;;;3.88;;
47089;SDS011;32840;52.516;13.294;2023-03-12T05:08:05;8.02;;;3.67;;
47089;SDS011;32840;52.516;13.294;2023-03-12T05:10:49;8.40;;;3.70;;
47089;SDS011;32840;52.516;13.294;2023-03-12T05:13:34;10.63;;;4.20;;
47089;SDS011;32840;52.516;13.294;2023-03-12T05:16:22;11.90;;;3.65;;
47089;SDS011;32840;52.516;13.294;2023-03-12T05:19:11;10.18;;;3.42;;
47089;SDS011;32840;52.516;13.294;2023-03-12T05:21:56;9.02;;;3.58;;
47089;SDS011;32840;52.516;13.294;2023-03-12T05:24:41;7.85;;;3.10;;
47089;SDS011;32840;52.516;13.294;2023-03-12T05:27:27;9.68;;;3.38;;
47089;SDS011;32840;52.516;13.294;2023-03-12T05:30:12;9.57;;;3.03;;
47089;SDS011;32840;52.516;13.294;2023-03-12T05:33:00;6.90;;;2.95;;
47089;SDS011;32840;52.516;13.294;2023-03-12T05:35:45;7.78;;;2.70;;
47089;SDS011;32840;52.516;13.294;2023-03-12T05:38:30;9.63;;;3.03;;
47089;SDS011;32840;52.516;13.294;2023-03-12T05:41:25;6.57;;;3.10;;
47089;SDS011;32840;52.516;13.294;2023-03-12T05:44:12;5.63;;;3.15;;
47089;SDS011;32840;52.516;13.294;2023-03-12T05:47:03;9.05;;;2.97;;
47089;SDS011;32840;52.516;13.294;2023-03-12T05:49:48;8.10;;;3.28;;
47089;SDS011;32840;52.516;13.294;2023-03-12T05:52:36;8.63;;;2.90;;
47089;SDS011;32840;52.516;13.294;2023-03-12T05:55:22;6.00;;;2.95;;
47089;SDS011;32840;52.516;13.294;2023-03-12T05:58:07;10.73;;;3.78;;
47089;SDS011;32840;52.516;13.294;2023-03-12T06:00:53;5.57;;;2.47;;
47089;SDS011;32840;52.516;13.294;2023-03-12T06:03:42;7.07;;;2.95;;
47089;SDS011;32840;52.516;13.294;2023-03-12T06:06:28;7.35;;;2.83;;
47089;SDS011;32840;52.516;13.294;2023-03-12T06:09:15;10.55;;;3.00;;
47089;SDS011;32840;52.516;13.294;2023-03-12T06:12:02;9.00;;;2.70;;
47089;SDS011;32840;52.516;13.294;2023-03-12T06:14:47;6.82;;;3.20;;
47089;SDS011;32840;52.516;13.294;2023-03-12T06:17:33;8.85;;;2.70;;
47089;SDS011;32840;52.516;13.294;2023-03-12T06:20:18;7.80;;;2.70;;
47089;SDS011;32840;52.516;13.294;2023-03-12T06:23:03;7.63;;;3.55;;
47089;SDS011;32840;52.516;13.294;2023-03-12T06:25:48;9.52;;;3.13;;
47089;SDS011;32840;52.516;13.294;2023-03-12T06:28:33;7.90;;;2.72;;
47089;SDS011;32840;52.516;13.294;2023-03-12T06:31:20;7.05;;;3.80;;
47089;SDS011;32840;52.516;13.294;2023-03-12T06:34:06;7.22;;;3.25;;
47089;SDS011;32840;52.516;13.294;2023-03-12T06:36:52;7.43;;;3.10;;
47089;SDS011;32840;52.516;13.294;2023-03-12T06:39:38;9.13;;;2.70;;
47089;SDS011;32840;52.516;13.294;2023-03-12T06:42:25;9.93;;;3.40;;
47089;SDS011;32840;52.516;13.294;2023-03-12T06:45:10;6.78;;;3.25;;
47089;SDS011;32840;52.516;13.294;2023-03-12T06:47:56;11.23;;;3.40;;
47089;SDS011;32840;52.516;13.294;2023-03-12T06:50:42;8.60;;;3.15;;
47089;SDS011;32840;52.516;13.294;2023-03-12T06:53:27;6.93;;;3.20;;
47089;SDS011;32840;52.516;13.294;2023-03-12T06:56:12;7.38;;;3.00;;
47089;SDS011;32840;52.516;13.294;2023-03-12T06:58:59;10.20;;;3.08;;
47089;SDS011;32840;52.516;13.294;2023-03-12T07:01:44;6.22;;;3.08;;
47089;SDS011;32840;52.516;13.294;2023-03-12T07:04:29;6.30;;;3.05;;
47089;SDS011;32840;52.516;13.294;2023-03-12T07:07:14;7.70;;;3.45;;
47089;SDS011;32840;52.516;13.294;2023-03-12T07:10:01;7.97;;;3.20;;
47089;SDS011;32840;52.516;13.294;2023-03-12T07:12:50;5.95;;;2.85;;
47089;SDS011;32840;52.516;13.294;2023-03-12T07:15:47;9.32;;;3.22;;
47089;SDS011;32840;52.516;13.294;2023-03-12T07:18:54;20.00;;;3.95;;
47089;SDS011;32840;52.516;13.294;2023-03-12T07:21:40;9.60;;;3.80;;
47089;SDS011;32840;52.516;13.294;2023-03-12T07:24:27;8.93;;;3.33;;
47089;SDS011;32840;52.516;13.294;2023-03-12T07:27:12;7.93;;;3.80;;
47089;SDS011;32840;52.516;13.294;2023-03-12T07:29:57;11.57;;;3.42;;
47089;SDS011;32840;52.516;13.294;2023-03-12T07:32:54;5.55;;;2.92;;
47089;SDS011;32840;52.516;13.294;2023-03-12T07:35:39;5.65;;;3.10;;
47089;SDS011;32840;52.516;13.294;2023-03-12T07:38:26;7.85;;;3.88;;
47089;SDS011;32840;52.516;13.294;2023-03-12T07:41:11;8.45;;;2.90;;
47089;SDS011;32840;52.516;13.294;2023-03-12T07:43:57;9.00;;;2.78;;
47089;SDS011;32840;52.516;13.294;2023-03-12T07:46:42;7.32;;;3.17;;
47089;SDS011;32840;52.516;13.294;2023-03-12T07:49:27;11.18;;;3.55;;
47089;SDS011;32840;52.516;13.294;2023-03-12T07:52:12;7.97;;;2.97;;
47089;SDS011;32840;52.516;13.294;2023-03-12T07:54:57;10.77;;;5.25;;
47089;SDS011;32840;52.516;13.294;2023-03-12T07:57:42;16.20;;;6.50;;
47089;SDS011;32840;52.516;13.294;2023-03-12T08:00:27;9.45;;;3.25;;
47089;SDS011;32840;52.516;13.294;2023-03-12T08:03:13;8.95;;;3.22;;
47089;SDS011;32840;52.516;13.294;2023-03-12T08:05:59;6.35;;;3.13;;
47089;SDS011;32840;52.516;13.294;2023-03-12T08:08:46;9.40;;;4.10;;
47089;SDS011;32840;52.516;13.294;2023-03-12T08:11:31;7.20;;;3.17;;
47089;SDS011;32840;52.516;13.294;2023-03-12T08:14:17;7.65;;;3.30;;
47089;SDS011;32840;52.516;13.294;2023-03-12T08:17:02;6.32;;;3.22;;
47089;SDS011;32840;52.516;13.294;2023-03-12T08:19:47;9.05;;;3.55;;
47089;SDS011;32840;52.516;13.294;2023-03-12T08:22:31;9.35;;;3.70;;
47089;SDS011;32840;52.516;13.294;2023-03-12T08:25:18;4.95;;;3.05;;
47089;SDS011;32840;52.516;13.294;2023-03-12T08:28:14;6.28;;;2.90;;
47089;SDS011;32840;52.516;13.294;2023-03-12T08:31:14;10.02;;;3.35;;
47089;SDS011;32840;52.516;13.294;2023-03-12T08:33:59;8.05;;;2.53;;
47089;SDS011;32840;52.516;13.294;2023-03-12T08:36:44;9.13;;;2.85;;
47089;SDS011;32840;52.516;13.294;2023-03-12T08:39:28;7.80;;;3.50;;
47089;SDS011;32840;52.516;13.294;2023-03-12T08:42:13;9.43;;;3.13;;
47089;SDS011;32840;52.516;13.294;2023-03-12T08:44:58;8.15;;;3.20;;
47089;SDS011;32840;52.516;13.294;2023-03-12T08:47:44;7.75;;;2.97;;
47089;SDS011;32840;52.516;13.294;2023-03-12T08:50:29;11.38;;;3.05;;
47089;SDS011;32840;52.516;13.294;2023-03-12T08:53:15;9.20;;;2.78;;
47089;SDS011;32840;52.516;13.294;2023-03-12T08:56:02;9.43;;;2.90;;
47089;SDS011;32840;52.516;13.294;2023-03-12T08:58:50;8.15;;;3.08;;
47089;SDS011;32840;52.516;13.294;2023-03-12T09:01:36;11.10;;;3.22;;
47089;SDS011;32840;52.516;13.294;2023-03-12T09:04:21;7.70;;;2.33;;
47089;SDS011;32840;52.516;13.294;2023-03-12T09:07:06;9.85;;;2.17;;
47089;SDS011;32840;52.516;13.294;2023-03-12T09:09:55;10.73;;;6.13;;
47089;SDS011;32840;52.516;13.294;2023-03-12T09:12:40;6.82;;;2.95;;
47089;SDS011;32840;52.516;13.294;2023-03-12T09:15:25;8.32;;;3.20;;
47089;SDS011;32840;52.516;13.294;2023-03-12T09:18:10;9.25;;;4.18;;
47089;SDS011;32840;52.516;13.294;2023-03-12T09:20:55;5.18;;;2.20;;
47089;SDS011;32840;52.516;13.294;2023-03-12T09:23:41;5.80;;;1.42;;
47089;SDS011;32840;52.516;13.294;2023-03-12T09:26:25;6.82;;;1.85;;
47089;SDS011;32840;52.516;13.294;2023-03-12T09:29:10;2.30;;;1.00;;
47089;SDS011;32840;52.516;13.294;2023-03-12T09:31:55;5.88;;;1.80;;
47089;SDS011;32840;52.516;13.294;2023-03-12T09:34:40;6.35;;;1.60;;
47089;SDS011;32840;52.516;13.294;2023-03-12T09:37:25;12.93;;;7.78;;
47089;SDS011;32840;52.516;13.294;2023-03-12T09:40:14;3.38;;;1.73;;
47089;SDS011;32840;52.516;13.294;2023-03-12T09:43:09;7.57;;;1.58;;
47089;SDS011;32840;52.516;13.294;2023-03-12T09:46:02;2.88;;;1.40;;
47089;SDS011;32840;52.516;13.294;2023-03-12T09:48:50;5.72;;;1.20;;
47089;SDS011;32840;52.516;13.294;2023-03-12T09:51:42;9.32;;;2.50;;
47089;SDS011;32840;52.516;13.294;2023-03-12T09:54:57;5.55;;;1.60;;
47089;SDS011;32840;52.516;13.294;2023-03-12T09:57:57;10.85;;;1.75;;
47089;SDS011;32840;52.516;13.294;2023-03-12T10:00:44;5.13;;;1.30;;
47089;SDS011;32840;52.516;13.294;2023-03-12T10:06:25;5.00;;;1.83;;
47089;SDS011;32840;52.516;13.294;2023-03-12T10:10:02;5.57;;;1.60;;
47089;SDS011;32840;52.516;13.294;2023-03-12T10:15:33;8.27;;;1.70;;
47089;SDS011;32840;52.516;13.294;2023-03-12T10:21:16;5.25;;;1.55;;
47089;SDS011;32840;52.516;13.294;2023-03-12T10:27:15;4.75;;;1.65;;
47089;SDS011;32840;52.516;13.294;2023-03-12T10:30:17;9.82;;;2.03;;
47089;SDS011;32840;52.516;13.294;2023-03-12T10:33:09;5.70;;;1.15;;
47089;SDS011;32840;52.516;13.294;2023-03-12T10:35:59;5.53;;;1.70;;
47089;SDS011;32840;52.516;13.294;2023-03-12T10:38:44;8.23;;;1.92;;
47089;SDS011;32840;52.516;13.294;2023-03-12T10:41:30;5.20;;;1.00;;
47089;SDS011;32840;52.516;13.294;2023-03-12T10:44:20;6.82;;;1.35;;
47089;SDS011;32840;52.516;13.294;2023-03-12T10:50:14;7.63;;;1.70;;
47089;SDS011;32840;52.516;13.294;2023-03-12T10:53:16;6.97;;;2.38;;
47089;SDS011;32840;52.516;13.294;2023-03-12T10:56:12;9.40;;;2.30;;
47089;SDS011;32840;52.516;13.294;2023-03-12T10:58:59;8.25;;;2.83;;
47089;SDS011;32840;52.516;13.294;2023-03-12T11:01:45;6.82;;;2.88;;
47089;SDS011;32840;52.516;13.294;2023-03-12T11:04:33;6.97;;;2.72;;
47089;SDS011;32840;52.516;13.294;2023-03-12T11:07:33;8.93;;;2.80;;
47089;SDS011;32840;52.516;13.294;2023-03-12T11:10:25;7.75;;;2.67;;
47089;SDS011;32840;52.516;13.294;2023-03-12T11:13:38;8.35;;;4.53;;
47089;SDS011;32840;52.516;13.294;2023-03-12T11:16:25;6.38;;;2.40;;
47089;SDS011;32840;52.516;13.294;2023-03-12T11:19:13;9.60;;;2.05;;
47089;SDS011;32840;52.516;13.294;2023-03-12T11:22:11;7.25;;;2.25;;
47089;SDS011;32840;52.516;13.294;2023-03-12T11:25:00;3.67;;;1.88;;
47089;SDS011;32840;52.516;13.294;2023-03-12T11:27:50;5.35;;;2.53;;
47089;SDS011;32840;52.516;13.294;2023-03-12T11:30:38;9.38;;;2.15;;
47089;SDS011;32840;52.516;13.294;2023-03-12T11:33:23;7.70;;;2.10;;
47089;SDS011;32840;52.516;13.294;2023-03-12T11:39:35;2.75;;;1.80;;
47089;SDS011;32840;52.516;13.294;2023-03-12T11:46:06;8.88;;;2.92;;
47089;SDS011;32840;52.516;13.294;2023-03-12T11:52:37;6.13;;;2.40;;
47089;SDS011;32840;52.516;13.294;2023-03-12T11:55:52;6.45;;;2.45;;
47089;SDS011;32840;52.516;13.294;2023-03-12T11:59:20;9.63;;;2.47;;
47089;SDS011;32840;52.516;13.294;2023-03-12T12:08:55;5.80;;;2.15;;
47089;SDS011;32840;52.516;13.294;2023-03-12T12:15:12;12.93;;;2.58;;
47089;SDS011;32840;52.516;13.294;2023-03-12T12:21:20;7.72;;;3.65;;
47089;SDS011;32840;52.516;13.294;2023-03-12T12:27:44;4.68;;;2.13;;
47089;SDS011;32840;52.516;13.294;2023-03-12T12:30:58;7.45;;;2.50;;
47089;SDS011;32840;52.516;13.294;2023-03-12T12:34:11;4.53;;;2.55;;
47089;SDS011;32840;52.516;13.294;2023-03-12T12:40:11;7.80;;;2.67;;
47089;SDS011;32840;52.516;13.294;2023-03-12T12:43:29;8.15;;;2.53;;
47089;SDS011;32840;52.516;13.294;2023-03-12T12:46:25;6.55;;;3.30;;
47089;SDS011;32840;52.516;13.294;2023-03-12T12:49:18;4.70;;;3.35;;
47089;SDS011;32840;52.516;13.294;2023-03-12T12:52:26;6.25;;;2.35;;
47089;SDS011;32840;52.516;13.294;2023-03-12T12:55:14;5.28;;;2.60;;
47089;SDS011;32840;52.516;13.294;2023-03-12T12:58:19;4.95;;;1.95;;
47089;SDS011;32840;52.516;13.294;2023-03-12T13:01:25;8.52;;;2.90;;
47089;SDS011;32840;52.516;13.294;2023-03-12T13:04:12;2.95;;;1.70;;
47089;SDS011;32840;52.516;13.294;2023-03-12T13:09:58;4.50;;;2.05;;
47089;SDS011;32840;52.516;13.294;2023-03-12T13:12:51;6.57;;;2.45;;
47089;SDS011;32840;52.516;13.294;2023-03-12T13:15:40;5.88;;;2.15;;
47089;SDS011;32840;52.516;13.294;2023-03-12T13:18:28;5.38;;;2.80;;
47089;SDS011;32840;52.516;13.294;2023-03-12T13:21:17;7.05;;;2.60;;
47089;SDS011;32840;52.516;13.294;2023-03-12T13:26:56;5.53;;;2.70;;
47089;SDS011;32840;52.516;13.294;2023-03-12T13:29:49;8.38;;;2.22;;
47089;SDS011;32840;52.516;13.294;2023-03-12T13:35:35;3.08;;;1.50;;
47089;SDS011;32840;52.516;13.294;2023-03-12T13:38:34;5.10;;;2.08;;
47089;SDS011;32840;52.516;13.294;2023-03-12T13:41:28;6.97;;;3.80;;
47089;SDS011;32840;52.516;13.294;2023-03-12T13:44:37;5.30;;;2.50;;
47089;SDS011;32840;52.516;13.294;2023-03-12T13:47:27;4.50;;;1.98;;
47089;SDS011;32840;52.516;13.294;2023-03-12T13:50:20;10.95;;;1.92;;
47089;SDS011;32840;52.516;13.294;2023-03-12T13:53:15;5.22;;;1.60;;
47089;SDS011;32840;52.516;13.294;2023-03-12T13:56:09;4.03;;;1.20;;
47089;SDS011;32840;52.516;13.294;2023-03-12T13:59:00;2.80;;;1.58;;
47089;SDS011;32840;52.516;13.294;2023-03-12T14:02:15;4.97;;;1.50;;
47089;SDS011;32840;52.516;13.294;2023-03-12T14:05:26;4.72;;;2.20;;
47089;SDS011;32840;52.516;13.294;2023-03-12T14:08:16;6.47;;;1.92;;
47089;SDS011;32840;52.516;13.294;2023-03-12T14:17:55;4.60;;;2.22;;
47089;SDS011;32840;52.516;13.294;2023-03-12T14:20:48;5.72;;;1.75;;
47089;SDS011;32840;52.516;13.294;2023-03-12T14:23:45;6.43;;;2.40;;
47089;SDS011;32840;52.516;13.294;2023-03-12T14:26:41;5.28;;;2.72;;
47089;SDS011;32840;52.516;13.294;2023-03-12T14:29:42;9.82;;;1.85;;
47089;SDS011;32840;52.516;13.294;2023-03-12T14:32:31;3.42;;;1.63;;
47089;SDS011;32840;52.516;13.294;2023-03-12T14:35:25;6.93;;;1.58;;
47089;SDS011;32840;52.516;13.294;2023-03-12T14:38:16;4.68;;;1.70;;
47089;SDS011;32840;52.516;13.294;2023-03-12T14:41:15;4.78;;;2.17;;
47089;SDS011;32840;52.516;13.294;2023-03-12T14:44:05;15.05;;;3.05;;
47089;SDS011;32840;52.516;13.294;2023-03-12T14:47:09;5.35;;;1.92;;
47089;SDS011;32840;52.516;13.294;2023-03-12T14:50:01;4.22;;;1.77;;
47089;SDS011;32840;52.516;13.294;2023-03-12T14:52:51;9.35;;;2.15;;
47089;SDS011;32840;52.516;13.294;2023-03-12T14:55:36;6.85;;;3.47;;
47089;SDS011;32840;52.516;13.294;2023-03-12T14:58:21;6.72;;;1.90;;
47089;SDS011;32840;52.516;13.294;2023-03-12T15:01:10;4.85;;;1.63;;
47089;SDS011;32840;52.516;13.294;2023-03-12T15:04:12;3.38;;;1.77;;
47089;SDS011;32840;52.516;13.294;2023-03-12T15:07:02;7.43;;;2.47;;
47089;SDS011;32840;52.516;13.294;2023-03-12T15:09:53;7.20;;;2.80;;
47089;SDS011;32840;52.516;13.294;2023-03-12T15:12:42;5.15;;;1.88;;
47089;SDS011;32840;52.516;13.294;2023-03-12T15:15:31;8.32;;;2.90;;
47089;SDS011;32840;52.516;13.294;2023-03-12T15:18:26;8.10;;;3.30;;
47089;SDS011;32840;52.516;13.294;2023-03-12T15:21:13;19.50;;;4.22;;
47089;SDS011;32840;52.516;13.294;2023-03-12T15:24:01;7.30;;;3.65;;
47089;SDS011;32840;52.516;13.294;2023-03-12T15:26:46;19.30;;;4.47;;
47089;SDS011;32840;52.516;13.294;2023-03-12T15:29:39;7.40;;;3.03;;
47089;SDS011;32840;52.516;13.294;2023-03-12T15:35:11;7.93;;;2.90;;
47089;SDS011;32840;52.516;13.294;2023-03-12T15:37:58;7.65;;;3.95;;
47089;SDS011;32840;52.516;13.294;2023-03-12T15:40:48;5.78;;;2.20;;
47089;SDS011;32840;52.516;13.294;2023-03-12T15:43:35;4.60;;;2.40;;
47089;SDS011;32840;52.516;13.294;2023-03-12T15:46:27;6.78;;;2.60;;
47089;SDS011;32840;52.516;13.294;2023-03-12T15:49:34;6.22;;;2.22;;
47089;SDS011;32840;52.516;13.294;2023-03-12T15:57:56;12.50;;;4.10;;
47089;SDS011;32840;52.516;13.294;2023-03-12T16:00:43;7.60;;;3.75;;
47089;SDS011;32840;52.516;13.294;2023-03-12T16:03:29;5.95;;;2.10;;
47089;SDS011;32840;52.516;13.294;2023-03-12T16:06:15;11.05;;;3.35;;
47089;SDS011;32840;52.516;13.294;2023-03-12T16:09:02;7.55;;;3.40;;
47089;SDS011;32840;52.516;13.294;2023-03-12T16:11:47;10.10;;;3.00;;
47089;SDS011;32840;52.516;13.294;2023-03-12T16:14:34;7.53;;;2.80;;
47089;SDS011;32840;52.516;13.294;2023-03-12T16:17:20;6.90;;;3.03;;
47089;SDS011;32840;52.516;13.294;2023-03-12T16:20:08;7.65;;;2.97;;
47089;SDS011;32840;52.516;13.294;2023-03-12T16:25:49;6.85;;;3.55;;
47089;SDS011;32840;52.516;13.294;2023-03-12T16:28:36;9.48;;;4.10;;
47089;SDS011;32840;52.516;13.294;2023-03-12T16:31:21;7.25;;;4.10;;
47089;SDS011;32840;52.516;13.294;2023-03-12T16:34:08;10.13;;;4.47;;
47089;SDS011;32840;52.516;13.294;2023-03-12T16:36:55;10.95;;;4.82;;
47089;SDS011;32840;52.516;13.294;2023-03-12T16:39:40;9.55;;;4.25;;
47089;SDS011;32840;52.516;13.294;2023-03-12T16:42:32;8.15;;;3.70;;
47089;SDS011;32840;52.516;13.294;2023-03-12T16:45:19;8.32;;;3.97;;
47089;SDS011;32840;52.516;13.294;2023-03-12T16:48:10;7.93;;;3.97;;
47089;SDS011;32840;52.516;13.294;2023-03-12T16:50:58;6.22;;;3.90;;
47089;SDS011;32840;52.516;13.294;2023-03-12T16:53:44;6.38;;;4.10;;
47089;SDS011;32840;52.516;13.294;2023-03-12T16:56:32;10.15;;;4.40;;
47089;SDS011;32840;52.516;13.294;2023-03-12T17:02:14;6.57;;;4.90;;
47089;SDS011;32840;52.516;13.294;2023-03-12T17:05:01;5.90;;;3.90;;
47089;SDS011;32840;52.516;13.294;2023-03-12T17:07:46;11.95;;;4.38;;
47089;SDS011;32840;52.516;13.294;2023-03-12T17:10:31;9.38;;;5.05;;
47089;SDS011;32840;52.516;13.294;2023-03-12T17:13:23;7.15;;;4.57;;
47089;SDS011;32840;52.516;13.294;2023-03-12T17:16:12;9.60;;;5.13;;
47089;SDS011;32840;52.516;13.294;2023-03-12T17:18:57;8.93;;;4.40;;
47089;SDS011;32840;52.516;13.294;2023-03-12T17:21:41;7.47;;;4.68;;
47089;SDS011;32840;52.516;13.294;2023-03-12T17:24:28;12.55;;;5.35;;
47089;SDS011;32840;52.516;13.294;2023-03-12T17:27:13;13.65;;;5.60;;
47089;SDS011;32840;52.516;13.294;2023-03-12T17:29:58;9.02;;;4.25;;
47089;SDS011;32840;52.516;13.294;2023-03-12T17:32:44;7.53;;;3.78;;
47089;SDS011;32840;52.516;13.294;2023-03-12T17:35:29;9.57;;;4.75;;
47089;SDS011;32840;52.516;13.294;2023-03-12T17:38:15;7.82;;;4.00;;
47089;SDS011;32840;52.516;13.294;2023-03-12T17:41:00;8.77;;;4.50;;
47089;SDS011;32840;52.516;13.294;2023-03-12T17:43:45;10.00;;;4.35;;
47089;SDS011;32840;52.516;13.294;2023-03-12T17:46:30;8.05;;;3.80;;
47089;SDS011;32840;52.516;13.294;2023-03-12T17:49:15;6.05;;;4.13;;
47089;SDS011;32840;52.516;13.294;2023-03-12T17:52:01;13.32;;;7.13;;
47089;SDS011;32840;52.516;13.294;2023-03-12T17:54:46;7.18;;;3.72;;
47089;SDS011;32840;52.516;13.294;2023-03-12T17:57:31;10.35;;;4.32;;
47089;SDS011;32840;52.516;13.294;2023-03-12T18:00:15;6.07;;;3.58;;
47089;SDS011;32840;52.516;13.294;2023-03-12T18:03:01;6.50;;;3.80;;
47089;SDS011;32840;52.516;13.294;2023-03-12T18:05:48;8.88;;;4.50;;
47089;SDS011;32840;52.516;13.294;2023-03-12T18:08:34;6.60;;;4.25;;